createdAt,value
2023-05-15T00:01:39.339Z,26.17
2023-05-15T00:04:08.078Z,14.82
2023-05-15T00:06:37.121Z,12.13
2023-05-15T00:09:14.138Z,23.33
2023-05-15T00:11:48.938Z,13.10
2023-05-15T00:14:17.952Z,25.02
2023-05-15T00:16:56.948Z,16.23
2023-05-15T00:19:25.620Z,21.90
2023-05-15T00:21:58.095Z,32.28
2023-05-15T00:24:38.610Z,19.58
2023-05-15T00:27:10.736Z,22.25
2023-05-15T00:29:39.289Z,27.02
2023-05-15T00:32:13.465Z,13.40
2023-05-15T00:34:45.656Z,8.25
2023-05-15T00:37:22.118Z,19.85
2023-05-15T00:39:57.887Z,18.35
2023-05-15T00:42:30.618Z,16.63
2023-05-15T00:45:13.101Z,49.00
2023-05-15T00:47:47.215Z,49.75
2023-05-15T00:50:17.349Z,28.75
2023-05-15T00:52:46.989Z,32.22
2023-05-15T00:55:33.095Z,68.43
2023-05-15T00:58:07.305Z,62.08
2023-05-15T01:00:36.369Z,39.50
2023-05-15T01:03:10.297Z,57.78
2023-05-15T01:05:42.332Z,39.80
2023-05-15T01:08:22.618Z,46.13
2023-05-15T01:10:53.723Z,37.45
2023-05-15T01:13:23.990Z,28.95
2023-05-15T01:15:52.823Z,24.98
2023-05-15T01:18:23.604Z,71.20
2023-05-15T01:21:33.831Z,63.63
2023-05-15T01:24:17.459Z,26.58
2023-05-15T01:27:28.540Z,40.28
2023-05-15T01:30:07.992Z,31.95
2023-05-15T01:32:44.623Z,13.60
2023-05-15T01:35:20.202Z,40.10
2023-05-15T01:37:56.595Z,12.95
2023-05-15T01:40:27.521Z,22.02
2023-05-15T01:43:03.062Z,36.30
2023-05-15T01:45:48.017Z,25.63
2023-05-15T01:48:30.604Z,27.50
2023-05-15T01:51:04.879Z,19.67
2023-05-15T01:53:35.433Z,15.80
2023-05-15T01:56:08.220Z,41.25
2023-05-15T01:58:40.285Z,35.88
2023-05-15T02:01:14.478Z,14.15
2023-05-15T02:03:47.124Z,40.08
2023-05-15T02:06:22.914Z,36.08
2023-05-15T02:08:52.588Z,50.05
2023-05-15T02:11:23.348Z,35.22
2023-05-15T02:13:54.343Z,14.43
2023-05-15T02:16:23.051Z,45.35
2023-05-15T02:18:52.881Z,66.47
2023-05-15T02:21:21.949Z,65.57
2023-05-15T02:23:50.362Z,77.57
2023-05-15T02:26:31.642Z,26.25
2023-05-15T02:29:13.858Z,52.55
2023-05-15T02:31:52.815Z,28.33
2023-05-15T02:34:29.223Z,24.42
2023-05-15T02:37:01.673Z,24.38
2023-05-15T02:39:34.880Z,63.67
2023-05-15T02:42:03.818Z,44.95
2023-05-15T02:44:36.973Z,28.90
2023-05-15T02:47:07.302Z,47.20
2023-05-15T02:49:37.602Z,68.60
2023-05-15T02:52:11.696Z,51.85
2023-05-15T02:54:48.238Z,14.80
2023-05-15T02:57:21.014Z,49.92
2023-05-15T03:00:00.964Z,51.05
2023-05-15T03:02:33.693Z,54.60
2023-05-15T03:05:04.668Z,37.42
2023-05-15T03:07:33.816Z,21.00
2023-05-15T03:10:02.428Z,17.13
2023-05-15T03:12:34.958Z,40.17
2023-05-15T03:15:05.575Z,26.35
2023-05-15T03:17:53.677Z,13.98
2023-05-15T03:20:42.366Z,8.43
2023-05-15T03:23:14.031Z,7.07
2023-05-15T03:25:51.470Z,13.73
2023-05-15T03:28:22.446Z,15.23
2023-05-15T03:31:00.745Z,8.10
2023-05-15T03:38:13.059Z,12.73
2023-05-15T03:44:15.368Z,8.48
2023-05-15T03:47:36.830Z,23.10
2023-05-15T03:53:45.776Z,16.35
2023-05-15T03:56:14.813Z,17.90
2023-05-15T03:58:46.262Z,34.28
2023-05-15T04:01:21.327Z,43.20
2023-05-15T04:03:57.711Z,46.03
2023-05-15T04:06:27.821Z,102.13
2023-05-15T04:09:00.341Z,95.65
2023-05-15T04:11:40.071Z,83.30
2023-05-15T04:14:10.879Z,43.88
2023-05-15T04:16:40.942Z,34.35
2023-05-15T04:19:28.073Z,13.93
2023-05-15T04:26:06.289Z,17.70
2023-05-15T04:29:39.568Z,4.80
2023-05-15T04:32:40.849Z,4.00
2023-05-15T04:35:24.086Z,3.92
2023-05-15T04:42:02.813Z,16.35
2023-05-15T04:44:44.894Z,14.20
2023-05-15T04:47:56.223Z,4.93
2023-05-15T04:52:20.388Z,5.85
2023-05-15T04:55:12.690Z,18.80
2023-05-15T04:58:22.566Z,26.70
2023-05-15T05:01:40.631Z,8.60
2023-05-15T05:04:25.794Z,17.30
2023-05-15T05:07:03.160Z,28.50
2023-05-15T05:09:44.986Z,12.23
2023-05-15T05:12:42.700Z,37.03
2023-05-15T05:15:27.735Z,40.78
2023-05-15T05:27:13.775Z,11.82
2023-05-15T05:31:10.171Z,13.02
2023-05-15T05:40:22.761Z,7.10
2023-05-15T05:43:51.260Z,8.18
2023-05-15T05:59:44.018Z,45.10
2023-05-15T06:02:12.873Z,34.75
2023-05-15T06:04:41.213Z,48.13
2023-05-15T06:07:09.729Z,46.88
2023-05-15T06:09:38.115Z,49.67
2023-05-15T06:12:08.327Z,52.28
2023-05-15T06:14:36.821Z,41.60
2023-05-15T06:17:06.424Z,74.65
2023-05-15T06:19:34.668Z,57.33
2023-05-15T06:22:02.876Z,52.50
2023-05-15T06:24:31.067Z,52.10
2023-05-15T06:26:59.852Z,53.85
2023-05-15T06:29:28.273Z,52.95
2023-05-15T06:31:56.688Z,51.00
2023-05-15T06:34:26.388Z,53.83
2023-05-15T06:36:54.592Z,60.05
2023-05-15T06:39:22.791Z,51.13
2023-05-15T06:41:53.960Z,51.10
2023-05-15T06:44:23.646Z,58.70
2023-05-15T06:46:52.020Z,56.50
2023-05-15T06:49:20.646Z,60.45
2023-05-15T06:51:50.347Z,62.60
2023-05-15T06:54:18.567Z,61.95
2023-05-15T06:56:46.756Z,62.38
2023-05-15T06:59:14.955Z,58.47
2023-05-15T07:01:43.163Z,62.28
2023-05-15T07:04:13.742Z,59.83
2023-05-15T07:06:42.444Z,65.20
2023-05-15T07:09:12.129Z,55.17
2023-05-15T07:11:42.193Z,60.65
2023-05-15T07:14:10.929Z,56.58
2023-05-15T07:16:39.107Z,61.03
2023-05-15T07:19:09.774Z,59.80
2023-05-15T07:21:38.126Z,56.35
2023-05-15T07:24:08.522Z,51.75
2023-05-15T07:26:46.930Z,51.78
2023-05-15T07:29:25.487Z,50.03
2023-05-15T07:31:53.741Z,57.92
2023-05-15T08:20:14.654Z,47.13
2023-05-15T08:22:42.790Z,48.42
2023-05-15T08:25:11.645Z,44.83
2023-05-15T08:27:39.812Z,48.63
2023-05-15T08:30:09.228Z,46.85
2023-05-15T08:32:37.588Z,39.38
2023-05-15T08:35:06.548Z,48.15
2023-05-15T08:37:36.288Z,45.60
2023-05-15T08:40:08.053Z,41.92
2023-05-15T08:42:45.545Z,42.17
2023-05-15T08:45:14.856Z,41.22
2023-05-15T08:47:44.623Z,41.20
2023-05-15T08:50:15.279Z,42.67
2023-05-15T08:52:47.364Z,40.90
2023-05-15T08:55:16.397Z,41.22
2023-05-15T08:57:46.358Z,37.58
2023-05-15T09:00:21.086Z,40.40
2023-05-15T09:02:49.707Z,41.15
2023-05-15T09:05:18.250Z,37.63
2023-05-15T09:07:50.572Z,36.67
2023-05-15T09:10:19.244Z,40.28
2023-05-15T09:12:53.372Z,43.88
2023-05-15T09:15:25.714Z,39.05
2023-05-15T09:17:55.532Z,38.95
2023-05-15T09:20:29.140Z,40.17
2023-05-15T09:22:59.986Z,35.85
2023-05-15T09:25:40.686Z,38.42
2023-05-15T09:28:28.084Z,36.85
2023-05-15T09:31:04.436Z,37.83
2023-05-15T09:33:34.870Z,41.05
2023-05-15T09:36:06.355Z,39.13
2023-05-15T09:38:42.067Z,37.05
2023-05-15T09:41:13.549Z,38.35
2023-05-15T09:43:55.920Z,40.40
2023-05-15T09:46:27.265Z,33.38
2023-05-15T09:49:03.352Z,39.13
2023-05-15T09:51:50.207Z,40.47
2023-05-15T09:54:38.625Z,38.35
2023-05-15T09:57:17.405Z,37.20
2023-05-15T09:59:52.647Z,35.53
2023-05-15T10:02:42.439Z,34.53
2023-05-15T10:05:17.624Z,38.85
2023-05-15T10:08:24.641Z,35.25
2023-05-15T10:11:21.087Z,36.60
2023-05-15T10:14:58.786Z,37.83
2023-05-15T10:21:28.807Z,38.70
2023-05-15T10:24:16.581Z,35.47
2023-05-15T10:27:30.107Z,37.38
2023-05-15T10:30:27.930Z,35.10
2023-05-15T10:33:22.410Z,36.20
2023-05-15T10:36:33.085Z,36.22
2023-05-15T10:39:40.632Z,35.35
2023-05-15T10:43:18.024Z,36.38
2023-05-15T11:04:04.746Z,36.22
2023-05-15T11:07:34.477Z,35.58
2023-05-15T11:10:52.684Z,41.58
2023-05-15T11:13:52.154Z,34.95
2023-05-15T11:23:48.751Z,29.67
2023-05-15T11:27:19.930Z,33.63
2023-05-15T11:30:45.992Z,29.70
2023-05-15T11:35:02.326Z,30.27
2023-05-15T11:37:50.989Z,32.08
2023-05-15T11:40:46.522Z,32.25
2023-05-15T11:43:20.809Z,29.88
2023-05-15T11:45:57.296Z,31.42
2023-05-15T11:48:32.197Z,29.63
2023-05-15T11:51:10.449Z,33.83
2023-05-15T11:53:45.032Z,30.20
2023-05-15T11:56:24.671Z,29.92
2023-05-15T11:59:28.335Z,29.73
2023-05-15T12:01:58.197Z,28.95
2023-05-15T12:04:45.106Z,28.73
2023-05-15T12:07:51.135Z,28.13
2023-05-15T12:13:16.647Z,27.77
2023-05-15T12:15:56.672Z,26.83
2023-05-15T12:18:25.440Z,25.30
2023-05-15T12:21:05.657Z,25.55
2023-05-15T12:23:40.584Z,24.92
2023-05-15T12:26:49.170Z,31.10
2023-05-15T12:29:27.534Z,19.90
2023-05-15T12:32:27.208Z,10.75
2023-05-15T12:35:11.691Z,10.52
2023-05-15T12:37:41.253Z,12.48
2023-05-15T12:40:12.115Z,13.00
2023-05-15T12:42:49.582Z,13.45
2023-05-15T12:45:27.088Z,12.90
2023-05-15T12:48:00.023Z,13.20
2023-05-15T12:50:33.206Z,13.68
2023-05-15T12:53:05.981Z,14.32
2023-05-15T12:55:37.939Z,13.90
2023-05-15T12:58:13.740Z,17.15
2023-05-15T13:00:47.489Z,13.02
2023-05-15T13:03:22.746Z,14.68
2023-05-15T13:05:58.135Z,15.85
2023-05-15T13:08:26.937Z,14.98
2023-05-15T13:10:59.158Z,16.33
2023-05-15T13:13:45.331Z,15.85
2023-05-15T13:16:21.514Z,13.75
2023-05-15T13:18:50.330Z,13.85
2023-05-15T13:21:18.899Z,15.80
2023-05-15T13:23:47.242Z,17.17
2023-05-15T13:26:15.716Z,20.88
2023-05-15T13:28:45.521Z,18.73
2023-05-15T13:31:14.027Z,18.17
2023-05-15T13:33:42.391Z,18.08
2023-05-15T13:36:20.321Z,16.73
2023-05-15T13:38:48.652Z,19.92
2023-05-15T13:41:17.101Z,19.83
2023-05-15T13:43:47.919Z,22.30
2023-05-15T13:46:16.496Z,22.70
2023-05-15T13:48:45.559Z,21.95
2023-05-15T13:51:14.061Z,30.58
2023-05-15T13:53:42.865Z,13.93
2023-05-15T13:56:11.416Z,21.55
2023-05-15T13:58:40.589Z,14.80
2023-05-15T14:01:10.500Z,14.68
2023-05-15T14:03:39.042Z,23.75
2023-05-15T14:06:09.431Z,18.77
2023-05-15T14:08:38.128Z,15.57
2023-05-15T14:11:06.596Z,16.83
2023-05-15T14:13:35.689Z,15.50
2023-05-15T14:16:04.150Z,15.93
2023-05-15T14:18:34.031Z,17.70
2023-05-15T14:21:02.567Z,15.40
2023-05-15T14:23:31.226Z,16.98
2023-05-15T14:25:59.623Z,16.67
2023-05-15T14:28:28.057Z,19.40
2023-05-15T14:30:56.580Z,15.52
2023-05-15T14:33:25.224Z,15.05
2023-05-15T14:35:55.162Z,18.08
2023-05-15T14:38:23.632Z,17.90
2023-05-15T14:40:52.154Z,18.88
2023-05-15T14:43:20.891Z,18.98
2023-05-15T14:46:04.448Z,19.65
2023-05-15T14:48:37.039Z,20.08
2023-05-15T14:51:07.320Z,19.00
2023-05-15T14:53:35.808Z,18.77
2023-05-15T14:56:05.091Z,19.40
2023-05-15T14:58:36.407Z,18.45
2023-05-15T15:01:05.148Z,19.95
2023-05-15T15:03:43.638Z,20.45
2023-05-15T15:06:16.058Z,14.80
2023-05-15T15:08:48.929Z,15.45
2023-05-15T15:11:27.489Z,18.45
2023-05-15T15:13:57.284Z,17.98
2023-05-15T15:16:29.623Z,17.63
2023-05-15T15:19:02.840Z,19.27
2023-05-15T15:21:34.676Z,21.25
2023-05-15T15:24:06.324Z,18.33
2023-05-15T15:26:37.144Z,17.42
2023-05-15T15:29:08.517Z,19.15
2023-05-15T15:31:37.313Z,17.63
2023-05-15T15:34:10.567Z,16.98
2023-05-15T15:36:41.543Z,18.65
2023-05-15T15:39:11.649Z,18.40
2023-05-15T15:41:40.787Z,18.80
2023-05-15T15:44:15.881Z,18.58
2023-05-15T15:46:44.514Z,20.42
2023-05-15T15:49:15.066Z,18.58
2023-05-15T15:51:45.437Z,18.75
2023-05-15T15:54:13.915Z,18.55
2023-05-15T15:56:42.974Z,19.58
2023-05-15T15:59:11.747Z,20.30
2023-05-15T16:01:40.626Z,19.65
2023-05-15T16:04:09.583Z,18.77
2023-05-15T16:07:06.373Z,19.90
2023-05-15T16:09:39.373Z,17.98
2023-05-15T16:12:10.064Z,18.55
2023-05-15T16:14:39.315Z,19.08
2023-05-15T16:17:10.006Z,21.73
2023-05-15T16:19:38.674Z,20.52
2023-05-15T16:22:08.754Z,20.58
2023-05-15T16:24:43.660Z,20.40
2023-05-15T16:27:15.498Z,21.30
2023-05-15T16:29:47.573Z,22.67
2023-05-15T16:32:16.512Z,20.25
2023-05-15T16:34:45.006Z,22.17
2023-05-15T16:37:15.223Z,20.67
2023-05-15T16:39:46.374Z,21.80
2023-05-15T16:42:17.547Z,20.77
2023-05-15T16:44:46.154Z,20.17
2023-05-15T16:47:16.969Z,19.25
2023-05-15T16:49:49.859Z,20.77
2023-05-15T16:52:26.487Z,20.45
2023-05-15T16:54:59.386Z,22.58
2023-05-15T16:57:30.839Z,21.17
2023-05-15T17:00:06.529Z,19.35
2023-05-15T17:02:46.023Z,19.20
2023-05-15T17:05:19.966Z,18.77
2023-05-15T17:08:04.756Z,19.05
2023-05-15T17:10:42.297Z,19.50
2023-05-15T17:13:11.128Z,19.33
2023-05-15T17:15:42.846Z,20.92
2023-05-15T17:18:18.779Z,19.00
2023-05-15T17:20:57.248Z,22.42
2023-05-15T17:23:31.178Z,20.83
2023-05-15T17:26:22.693Z,23.23
2023-05-15T17:28:57.903Z,21.17
2023-05-15T17:31:58.228Z,21.30
2023-05-15T17:34:51.566Z,21.08
2023-05-15T17:37:36.710Z,23.08
2023-05-15T17:40:18.865Z,27.23
2023-05-15T17:43:04.356Z,25.35
2023-05-15T17:50:24.636Z,19.70
2023-05-15T17:53:39.201Z,20.05
2023-05-15T17:56:34.317Z,21.05
2023-05-15T17:59:09.553Z,21.10
2023-05-15T18:01:38.967Z,21.17
2023-05-15T18:04:10.391Z,20.35
2023-05-15T18:06:43.389Z,18.90
2023-05-15T18:09:24.913Z,20.27
2023-05-15T18:12:22.066Z,19.00
2023-05-15T18:14:57.998Z,19.40
2023-05-15T18:17:41.352Z,20.55
2023-05-15T18:20:12.516Z,20.70
2023-05-15T18:22:41.208Z,20.00
2023-05-15T18:25:16.017Z,20.00
2023-05-15T18:27:50.299Z,22.50
2023-05-15T18:30:19.158Z,20.70
2023-05-15T18:32:47.946Z,21.23
2023-05-15T18:35:21.114Z,21.15
2023-05-15T18:38:04.937Z,20.00
2023-05-15T18:40:33.946Z,21.55
2023-05-15T18:43:04.160Z,21.00
2023-05-15T18:45:33.211Z,19.85
2023-05-15T18:48:01.918Z,20.13
2023-05-15T18:50:31.918Z,20.77
2023-05-15T18:53:03.500Z,21.27
2023-05-15T18:55:32.293Z,21.77
2023-05-15T18:58:01.210Z,18.25
2023-05-15T19:00:38.026Z,18.30
2023-05-15T19:03:10.975Z,19.08
2023-05-15T19:05:39.935Z,19.17
2023-05-15T19:08:12.155Z,21.65
2023-05-15T19:10:40.935Z,21.20
2023-05-15T19:13:09.497Z,21.40
2023-05-15T19:15:39.736Z,20.75
2023-05-15T19:18:08.484Z,20.77
2023-05-15T19:20:36.982Z,22.10
2023-05-15T19:23:05.527Z,19.13
2023-05-15T19:25:35.050Z,20.23
2023-05-15T19:28:06.911Z,18.65
2023-05-15T19:30:35.496Z,22.80
2023-05-15T19:33:07.691Z,22.20
2023-05-15T19:35:37.724Z,23.10
2023-05-15T19:38:07.164Z,23.15
2023-05-15T19:40:38.022Z,24.65
2023-05-15T19:43:06.559Z,29.08
2023-05-15T19:45:36.085Z,32.67
2023-05-15T19:48:04.611Z,32.38
2023-05-15T19:50:34.568Z,30.90
2023-05-15T19:53:03.500Z,34.53
2023-05-15T19:55:32.218Z,34.28
2023-05-15T19:58:01.178Z,30.50
2023-05-15T20:00:30.255Z,31.17
2023-05-15T20:03:00.823Z,35.42
2023-05-15T20:05:29.648Z,32.97
2023-05-15T20:08:02.078Z,28.55
2023-05-15T20:10:31.719Z,28.13
2023-05-15T20:13:02.152Z,30.23
2023-05-15T20:15:33.711Z,31.00
2023-05-15T20:18:02.409Z,29.20
2023-05-15T20:20:31.161Z,26.23
2023-05-15T20:23:01.330Z,29.58
2023-05-15T20:25:40.087Z,26.63
2023-05-15T20:28:08.718Z,23.13
2023-05-15T20:30:37.411Z,29.17
2023-05-15T20:33:06.064Z,22.83
2023-05-15T20:35:34.739Z,25.45
2023-05-15T20:38:04.610Z,23.38
2023-05-15T20:40:33.124Z,23.83
2023-05-15T20:43:02.426Z,21.25
2023-05-15T20:45:32.405Z,21.38
2023-05-15T20:48:01.057Z,21.05
2023-05-15T20:50:29.469Z,21.48
2023-05-15T20:52:57.860Z,23.88
2023-05-15T20:55:27.813Z,19.73
2023-05-15T20:57:56.227Z,26.60
2023-05-15T21:00:24.779Z,27.60
2023-05-15T21:02:53.422Z,18.08
2023-05-15T21:05:22.113Z,24.75
2023-05-15T21:07:50.960Z,19.50
2023-05-15T21:10:20.192Z,27.73
2023-05-15T21:12:50.721Z,26.52
2023-05-15T21:15:22.579Z,31.90
2023-05-15T21:17:51.159Z,27.75
2023-05-15T21:20:19.753Z,28.25
2023-05-15T21:22:50.577Z,26.60
2023-05-15T21:25:19.293Z,28.77
2023-05-15T21:27:51.112Z,26.73
2023-05-15T21:30:19.875Z,28.88
2023-05-15T21:32:48.328Z,23.48
2023-05-15T21:35:17.051Z,27.75
2023-05-15T21:37:45.446Z,26.40
2023-05-15T21:40:14.912Z,33.05
2023-05-15T21:42:43.322Z,27.35
2023-05-15T21:45:13.298Z,26.65
2023-05-15T21:47:41.802Z,22.33
2023-05-15T21:50:10.773Z,23.95
2023-05-15T21:52:39.156Z,24.67
2023-05-15T21:55:09.388Z,24.38
2023-05-15T21:57:37.895Z,30.77
2023-05-15T22:00:08.420Z,27.63
2023-05-15T22:02:38.582Z,22.60
2023-05-15T22:05:07.856Z,27.23
2023-05-15T22:07:39.478Z,27.85
2023-05-15T22:10:13.920Z,35.38
2023-05-15T22:12:42.691Z,27.75
2023-05-15T22:15:13.185Z,29.35
2023-05-15T22:17:44.852Z,32.67
2023-05-15T22:20:20.428Z,23.52
2023-05-15T22:22:51.633Z,29.02
2023-05-15T22:25:21.395Z,28.52
2023-05-15T22:27:49.910Z,29.38
2023-05-15T22:30:18.502Z,33.58
2023-05-15T22:32:51.436Z,30.58
2023-05-15T22:35:22.276Z,28.38
2023-05-15T22:37:50.854Z,29.92
2023-05-15T22:40:21.677Z,32.08
2023-05-15T22:42:50.396Z,31.70
2023-05-15T22:45:20.427Z,27.15
2023-05-15T22:47:57.221Z,34.58
2023-05-15T22:50:26.943Z,32.50
2023-05-15T22:52:55.656Z,30.35
2023-05-15T22:55:24.194Z,33.42
2023-05-15T22:57:52.728Z,32.40
2023-05-15T23:00:23.468Z,34.53
2023-05-15T23:02:55.545Z,43.28
2023-05-15T23:05:30.445Z,36.33
2023-05-15T23:07:58.987Z,41.97
2023-05-15T23:10:29.952Z,39.67
2023-05-15T23:12:58.822Z,40.92
2023-05-15T23:15:27.283Z,33.72
2023-05-15T23:17:58.015Z,33.55
2023-05-15T23:20:26.776Z,30.10
2023-05-15T23:22:55.613Z,30.40
2023-05-15T23:25:24.333Z,31.85
2023-05-15T23:27:58.556Z,29.70
2023-05-15T23:30:30.016Z,25.67
2023-05-15T23:33:00.631Z,28.55
2023-05-15T23:35:30.445Z,24.98
2023-05-15T23:37:59.368Z,25.55
2023-05-15T23:40:28.212Z,26.23
2023-05-15T23:42:57.166Z,27.15
2023-05-15T23:45:28.788Z,25.63
2023-05-15T23:47:57.771Z,26.73
2023-05-15T23:50:28.165Z,25.30
2023-05-15T23:52:59.215Z,26.02
2023-05-15T23:55:27.942Z,23.77
2023-05-15T23:57:56.751Z,25.63
